PWSweather.com
Personal Weather Stations
Station Observations
WXGLH1124
Southern Oaks, Indianapolis, IN 46217

Southern OaksIndianapolis, IN 46217

Lat: 39.65113, Lon: -86.16866

Elevation: 720

Station Type: Vantage Pro2

High Low Average
Temperature 35.4°F1.9°C 21.0°F-6.1°C 31.4°F-0.3°C
Dew Point 33.1°F0.6°C 17.8°F-7.9°C 29.0°F-1.7°C
Winds 19.0 mph 30.6 kmh Calm Calm 7.0 mph E11.3 kmh E
Wind Gusts 27.0 mph43.5 kmh 2.0 mph3.2 kmh 12.0 mph19.3 kmh
Humidity 93% 87% 90%
Pressure 30.06 in1017.9 mb 29.66 in1004.4 mb -
Precipitation 0.00 in0.0 mm - -
Hour Temp Dew Point Humidity Winds Wind Gusts Pressure Precip Precip Rate Daily Precip Total
12:00 AM 35.2°F1.8°C 32.0°F0.0°C 88% Calm Calm 6.0 mph9.7 kmh 30.09 in1019.0 mb 0.00 in0.0 mm 0.00 in0.0 mm 0.00 in0.0 mm
12:05 AM 35.1°F1.7°C 31.9°F-0.1°C 88% 1.0 mph SSE1.6 kmh SSE 8.0 mph12.9 kmh 30.09 in1019.0 mb 0.00 in0.0 mm 0.00 in0.0 mm 0.00 in0.0 mm
12:10 AM 35.1°F1.7°C 31.9°F-0.1°C 88% 5.0 mph SSE8.0 kmh SSE 7.0 mph11.3 kmh 30.09 in1019.0 mb 0.00 in0.0 mm 0.00 in0.0 mm 0.00 in0.0 mm
12:14 AM 35.1°F1.7°C 31.9°F-0.1°C 88% Calm Calm 3.0 mph4.8 kmh 30.09 in1019.0 mb 0.00 in0.0 mm 0.00 in0.0 mm 0.00 in0.0 mm
12:20 AM 35.1°F1.7°C 32.2°F0.1°C 89% Calm Calm 5.0 mph8.0 kmh 30.07 in1018.3 mb 0.00 in0.0 mm 0.00 in0.0 mm 0.00 in0.0 mm
12:24 AM 35.1°F1.7°C 32.2°F0.1°C 89% 6.0 mph ENE9.7 kmh ENE 6.0 mph9.7 kmh 30.05 in1017.6 mb 0.00 in0.0 mm 0.00 in0.0 mm 0.00 in0.0 mm
12:30 AM 35.0°F1.7°C 32.1°F0.1°C 89% 1.0 mph E1.6 kmh E 12.0 mph19.3 kmh 30.05 in1017.6 mb 0.00 in0.0 mm 0.00 in0.0 mm 0.00 in0.0 mm
12:35 AM 35.0°F1.7°C 32.1°F0.1°C 89% 2.0 mph E3.2 kmh E 4.0 mph6.4 kmh 30.06 in1017.9 mb 0.00 in0.0 mm 0.00 in0.0 mm 0.00 in0.0 mm
12:39 AM 35.0°F1.7°C 32.1°F0.1°C 89% 7.0 mph NE11.3 kmh NE 7.0 mph11.3 kmh 30.06 in1017.9 mb 0.00 in0.0 mm 0.00 in0.0 mm 0.00 in0.0 mm
12:45 AM 35.0°F1.7°C 32.1°F0.1°C 89% Calm Calm 4.0 mph6.4 kmh 30.07 in1018.3 mb 0.00 in0.0 mm 0.00 in0.0 mm 0.00 in0.0 mm
12:49 AM 35.0°F1.7°C 32.1°F0.1°C 89% 2.0 mph SE3.2 kmh SE 10.0 mph16.1 kmh 30.06 in1017.9 mb 0.00 in0.0 mm 0.00 in0.0 mm 0.00 in0.0 mm
12:54 AM 35.1°F1.7°C 32.2°F0.1°C 89% 4.0 mph NE6.4 kmh NE 9.0 mph14.5 kmh 30.05 in1017.6 mb 0.00 in0.0 mm 0.00 in0.0 mm 0.00 in0.0 mm
01:00 AM 35.1°F1.7°C 32.2°F0.1°C 89% 1.0 mph E1.6 kmh E 5.0 mph8.0 kmh 30.05 in1017.6 mb 0.00 in0.0 mm 0.00 in0.0 mm 0.00 in0.0 mm
01:04 AM 35.1°F1.7°C 32.2°F0.1°C 89% 3.0 mph ESE4.8 kmh ESE 8.0 mph12.9 kmh 30.06 in1017.9 mb 0.00 in0.0 mm 0.00 in0.0 mm 0.00 in0.0 mm
01:10 AM 35.1°F1.7°C 32.2°F0.1°C 89% 1.0 mph SSE1.6 kmh SSE 11.0 mph17.7 kmh 30.05 in1017.6 mb 0.00 in0.0 mm 0.00 in0.0 mm 0.00 in0.0 mm
01:15 AM 35.1°F1.7°C 32.2°F0.1°C 89% 4.0 mph E6.4 kmh E 10.0 mph16.1 kmh 30.05 in1017.6 mb 0.00 in0.0 mm 0.00 in0.0 mm 0.00 in0.0 mm
01:20 AM 35.1°F1.7°C 32.2°F0.1°C 89% 2.0 mph E3.2 kmh E 9.0 mph14.5 kmh 30.05 in1017.6 mb 0.00 in0.0 mm 0.00 in0.0 mm 0.00 in0.0 mm
01:25 AM 35.1°F1.7°C 32.2°F0.1°C 89% Calm Calm 5.0 mph8.0 kmh 30.05 in1017.6 mb 0.00 in0.0 mm 0.00 in0.0 mm 0.00 in0.0 mm
01:30 AM 35.1°F1.7°C 32.2°F0.1°C 89% 4.0 mph ENE6.4 kmh ENE 6.0 mph9.7 kmh 30.05 in1017.6 mb 0.00 in0.0 mm 0.00 in0.0 mm 0.00 in0.0 mm
01:35 AM 35.2°F1.8°C 32.3°F0.2°C 89% 2.0 mph S3.2 kmh S 6.0 mph9.7 kmh 30.04 in1017.3 mb 0.00 in0.0 mm 0.00 in0.0 mm 0.00 in0.0 mm
01:40 AM 35.2°F1.8°C 32.3°F0.2°C 89% Calm Calm 7.0 mph11.3 kmh 30.04 in1017.3 mb 0.00 in0.0 mm 0.00 in0.0 mm 0.00 in0.0 mm
01:45 AM 35.2°F1.8°C 32.3°F0.2°C 89% 4.0 mph SE6.4 kmh SE 8.0 mph12.9 kmh 30.03 in1016.9 mb 0.00 in0.0 mm 0.00 in0.0 mm 0.00 in0.0 mm
01:50 AM 35.2°F1.8°C 32.3°F0.2°C 89% 3.0 mph SE4.8 kmh SE 6.0 mph9.7 kmh 30.02 in1016.6 mb 0.00 in0.0 mm 0.00 in0.0 mm 0.00 in0.0 mm
01:55 AM 35.3°F1.8°C 32.4°F0.2°C 89% 2.0 mph SE3.2 kmh SE 8.0 mph12.9 kmh 30.02 in1016.6 mb 0.00 in0.0 mm 0.00 in0.0 mm 0.00 in0.0 mm
02:00 AM 35.3°F1.8°C 32.4°F0.2°C 89% 1.0 mph E1.6 kmh E 4.0 mph6.4 kmh 30.02 in1016.6 mb 0.00 in0.0 mm 0.00 in0.0 mm 0.00 in0.0 mm
02:05 AM 35.3°F1.8°C 32.4°F0.2°C 89% 5.0 mph SE8.0 kmh SE 7.0 mph11.3 kmh 30.02 in1016.6 mb 0.00 in0.0 mm 0.00 in0.0 mm 0.00 in0.0 mm
02:10 AM 35.3°F1.8°C 32.4°F0.2°C 89% 2.0 mph E3.2 kmh E 7.0 mph11.3 kmh 30.02 in1016.6 mb 0.00 in0.0 mm 0.00 in0.0 mm 0.00 in0.0 mm
02:15 AM 35.4°F1.9°C 32.5°F0.3°C 89% 1.0 mph SE1.6 kmh SE 7.0 mph11.3 kmh 30.02 in1016.6 mb 0.00 in0.0 mm 0.00 in0.0 mm 0.00 in0.0 mm
02:19 AM 35.3°F1.8°C 32.4°F0.2°C 89% 4.0 mph SE6.4 kmh SE 6.0 mph9.7 kmh 30.01 in1016.3 mb 0.00 in0.0 mm 0.00 in0.0 mm 0.00 in0.0 mm
02:25 AM 35.3°F1.8°C 32.4°F0.2°C 89% 1.0 mph ESE1.6 kmh ESE 3.0 mph4.8 kmh 30.01 in1016.3 mb 0.00 in0.0 mm 0.00 in0.0 mm 0.00 in0.0 mm
02:29 AM 35.3°F1.8°C 32.4°F0.2°C 89% 1.0 mph ENE1.6 kmh ENE 8.0 mph12.9 kmh 30.01 in1016.3 mb 0.00 in0.0 mm 0.00 in0.0 mm 0.00 in0.0 mm
02:35 AM 35.3°F1.8°C 32.4°F0.2°C 89% 1.0 mph E1.6 kmh E 5.0 mph8.0 kmh 30.01 in1016.3 mb 0.00 in0.0 mm 0.00 in0.0 mm 0.00 in0.0 mm
02:40 AM 35.3°F1.8°C 32.4°F0.2°C 89% 2.0 mph E3.2 kmh E 5.0 mph8.0 kmh 30.01 in1016.3 mb 0.00 in0.0 mm 0.00 in0.0 mm 0.00 in0.0 mm
02:45 AM 35.3°F1.8°C 32.4°F0.2°C 89% 1.0 mph SE1.6 kmh SE 8.0 mph12.9 kmh 30.01 in1016.3 mb 0.00 in0.0 mm 0.00 in0.0 mm 0.00 in0.0 mm
02:50 AM 35.2°F1.8°C 32.3°F0.2°C 89% 4.0 mph SE6.4 kmh SE 6.0 mph9.7 kmh 30.02 in1016.6 mb 0.00 in0.0 mm 0.00 in0.0 mm 0.00 in0.0 mm
02:55 AM 35.3°F1.8°C 32.4°F0.2°C 89% 2.0 mph E3.2 kmh E 7.0 mph11.3 kmh 30.02 in1016.6 mb 0.00 in0.0 mm 0.00 in0.0 mm 0.00 in0.0 mm
03:00 AM 35.2°F1.8°C 32.3°F0.2°C 89% 2.0 mph NE3.2 kmh NE 4.0 mph6.4 kmh 30.02 in1016.6 mb 0.00 in0.0 mm 0.00 in0.0 mm 0.00 in0.0 mm
03:05 AM 35.2°F1.8°C 32.3°F0.2°C 89% 1.0 mph E1.6 kmh E 4.0 mph6.4 kmh 30.02 in1016.6 mb 0.00 in0.0 mm 0.00 in0.0 mm 0.00 in0.0 mm
03:10 AM 35.3°F1.8°C 32.4°F0.2°C 89% 3.0 mph ESE4.8 kmh ESE 6.0 mph9.7 kmh 30.02 in1016.6 mb 0.00 in0.0 mm 0.00 in0.0 mm 0.00 in0.0 mm
03:15 AM 35.3°F1.8°C 32.4°F0.2°C 89% 3.0 mph SE4.8 kmh SE 4.0 mph6.4 kmh 30.03 in1016.9 mb 0.00 in0.0 mm 0.00 in0.0 mm 0.00 in0.0 mm
03:19 AM 35.3°F1.8°C 32.4°F0.2°C 89% 2.0 mph E3.2 kmh E 7.0 mph11.3 kmh 30.03 in1016.9 mb 0.00 in0.0 mm 0.00 in0.0 mm 0.00 in0.0 mm
03:25 AM 35.3°F1.8°C 32.4°F0.2°C 89% Calm Calm 3.0 mph4.8 kmh 30.03 in1016.9 mb 0.00 in0.0 mm 0.00 in0.0 mm 0.00 in0.0 mm
03:30 AM 35.3°F1.8°C 32.4°F0.2°C 89% 3.0 mph E4.8 kmh E 3.0 mph4.8 kmh 30.03 in1016.9 mb 0.00 in0.0 mm 0.00 in0.0 mm 0.00 in0.0 mm
03:35 AM 35.3°F1.8°C 32.4°F0.2°C 89% Calm Calm 6.0 mph9.7 kmh 30.03 in1016.9 mb 0.00 in0.0 mm 0.00 in0.0 mm 0.00 in0.0 mm
03:40 AM 35.3°F1.8°C 32.4°F0.2°C 89% 1.0 mph ESE1.6 kmh ESE 2.0 mph3.2 kmh 30.03 in1016.9 mb 0.00 in0.0 mm 0.00 in0.0 mm 0.00 in0.0 mm
03:45 AM 35.3°F1.8°C 32.4°F0.2°C 89% 1.0 mph ESE1.6 kmh ESE 2.0 mph3.2 kmh 30.03 in1016.9 mb 0.00 in0.0 mm 0.00 in0.0 mm 0.00 in0.0 mm
03:49 AM 35.3°F1.8°C 32.4°F0.2°C 89% Calm Calm 7.0 mph11.3 kmh 30.02 in1016.6 mb 0.00 in0.0 mm 0.00 in0.0 mm 0.00 in0.0 mm
03:55 AM 35.3°F1.8°C 32.4°F0.2°C 89% Calm Calm 4.0 mph6.4 kmh 30.02 in1016.6 mb 0.00 in0.0 mm 0.00 in0.0 mm 0.00 in0.0 mm
04:00 AM 35.3°F1.8°C 32.4°F0.2°C 89% 2.0 mph ESE3.2 kmh ESE 4.0 mph6.4 kmh 30.01 in1016.3 mb 0.00 in0.0 mm 0.00 in0.0 mm 0.00 in0.0 mm
04:05 AM 35.3°F1.8°C 32.4°F0.2°C 89% Calm Calm 3.0 mph4.8 kmh 30.01 in1016.3 mb 0.00 in0.0 mm 0.00 in0.0 mm 0.00 in0.0 mm
04:10 AM 35.3°F1.8°C 32.4°F0.2°C 89% 1.0 mph SE1.6 kmh SE 5.0 mph8.0 kmh 30.00 in1015.9 mb 0.00 in0.0 mm 0.00 in0.0 mm 0.00 in0.0 mm
04:15 AM 35.3°F1.8°C 32.4°F0.2°C 89% Calm Calm 6.0 mph9.7 kmh 30.00 in1015.9 mb 0.00 in0.0 mm 0.00 in0.0 mm 0.00 in0.0 mm
04:19 AM 35.3°F1.8°C 32.4°F0.2°C 89% 2.0 mph E3.2 kmh E 6.0 mph9.7 kmh 30.00 in1015.9 mb 0.00 in0.0 mm 0.00 in0.0 mm 0.00 in0.0 mm
04:25 AM 35.3°F1.8°C 32.4°F0.2°C 89% Calm Calm 5.0 mph8.0 kmh 30.00 in1015.9 mb 0.00 in0.0 mm 0.00 in0.0 mm 0.00 in0.0 mm
04:30 AM 35.3°F1.8°C 32.4°F0.2°C 89% 4.0 mph ENE6.4 kmh ENE 4.0 mph6.4 kmh 29.99 in1015.6 mb 0.00 in0.0 mm 0.00 in0.0 mm 0.00 in0.0 mm
04:34 AM 35.3°F1.8°C 32.4°F0.2°C 89% Calm Calm 6.0 mph9.7 kmh 30.00 in1015.9 mb 0.00 in0.0 mm 0.00 in0.0 mm 0.00 in0.0 mm
04:40 AM 35.3°F1.8°C 32.4°F0.2°C 89% Calm Calm 6.0 mph9.7 kmh 29.99 in1015.6 mb 0.00 in0.0 mm 0.00 in0.0 mm 0.00 in0.0 mm
04:45 AM 35.3°F1.8°C 32.4°F0.2°C 89% 1.0 mph E1.6 kmh E 7.0 mph11.3 kmh 29.98 in1015.2 mb 0.00 in0.0 mm 0.00 in0.0 mm 0.00 in0.0 mm
04:50 AM 35.3°F1.8°C 32.4°F0.2°C 89% Calm Calm 5.0 mph8.0 kmh 29.98 in1015.2 mb 0.00 in0.0 mm 0.00 in0.0 mm 0.00 in0.0 mm
04:55 AM 35.3°F1.8°C 32.4°F0.2°C 89% 1.0 mph ESE1.6 kmh ESE 3.0 mph4.8 kmh 29.97 in1014.9 mb 0.00 in0.0 mm 0.00 in0.0 mm 0.00 in0.0 mm
05:00 AM 35.3°F1.8°C 32.4°F0.2°C 89% 6.0 mph SE9.7 kmh SE 6.0 mph9.7 kmh 29.96 in1014.6 mb 0.00 in0.0 mm 0.00 in0.0 mm 0.00 in0.0 mm
05:05 AM 35.2°F1.8°C 32.3°F0.2°C 89% 6.0 mph NE9.7 kmh NE 7.0 mph11.3 kmh 29.96 in1014.6 mb 0.00 in0.0 mm 0.00 in0.0 mm 0.00 in0.0 mm
05:09 AM 35.2°F1.8°C 32.3°F0.2°C 89% Calm Calm 10.0 mph16.1 kmh 29.95 in1014.2 mb 0.00 in0.0 mm 0.00 in0.0 mm 0.00 in0.0 mm
05:15 AM 35.2°F1.8°C 32.3°F0.2°C 89% 1.0 mph E1.6 kmh E 6.0 mph9.7 kmh 29.95 in1014.2 mb 0.00 in0.0 mm 0.00 in0.0 mm 0.00 in0.0 mm
05:20 AM 35.2°F1.8°C 32.3°F0.2°C 89% 2.0 mph NE3.2 kmh NE 4.0 mph6.4 kmh 29.95 in1014.2 mb 0.00 in0.0 mm 0.00 in0.0 mm 0.00 in0.0 mm
05:25 AM 35.2°F1.8°C 32.3°F0.2°C 89% 4.0 mph E6.4 kmh E 7.0 mph11.3 kmh 29.95 in1014.2 mb 0.00 in0.0 mm 0.00 in0.0 mm 0.00 in0.0 mm
05:30 AM 35.2°F1.8°C 32.3°F0.2°C 89% Calm Calm 7.0 mph11.3 kmh 29.94 in1013.9 mb 0.00 in0.0 mm 0.00 in0.0 mm 0.00 in0.0 mm
05:35 AM 35.2°F1.8°C 32.3°F0.2°C 89% 2.0 mph ESE3.2 kmh ESE 6.0 mph9.7 kmh 29.95 in1014.2 mb 0.00 in0.0 mm 0.00 in0.0 mm 0.00 in0.0 mm
05:40 AM 35.2°F1.8°C 32.3°F0.2°C 89% Calm Calm 6.0 mph9.7 kmh 29.94 in1013.9 mb 0.00 in0.0 mm 0.00 in0.0 mm 0.00 in0.0 mm
05:45 AM 35.2°F1.8°C 32.3°F0.2°C 89% 1.0 mph E1.6 kmh E 10.0 mph16.1 kmh 29.93 in1013.5 mb 0.00 in0.0 mm 0.00 in0.0 mm 0.00 in0.0 mm
05:50 AM 35.2°F1.8°C 32.3°F0.2°C 89% 2.0 mph E3.2 kmh E 6.0 mph9.7 kmh 29.93 in1013.5 mb 0.00 in0.0 mm 0.00 in0.0 mm 0.00 in0.0 mm
05:55 AM 35.2°F1.8°C 32.3°F0.2°C 89% 3.0 mph ESE4.8 kmh ESE 7.0 mph11.3 kmh 29.93 in1013.5 mb 0.00 in0.0 mm 0.00 in0.0 mm 0.00 in0.0 mm
06:00 AM 35.2°F1.8°C 32.3°F0.2°C 89% Calm Calm 7.0 mph11.3 kmh 29.92 in1013.2 mb 0.00 in0.0 mm 0.00 in0.0 mm 0.00 in0.0 mm
06:05 AM 35.1°F1.7°C 32.2°F0.1°C 89% 6.0 mph ENE9.7 kmh ENE 6.0 mph9.7 kmh 29.92 in1013.2 mb 0.00 in0.0 mm 0.00 in0.0 mm 0.00 in0.0 mm
06:09 AM 35.1°F1.7°C 32.2°F0.1°C 89% 5.0 mph E8.0 kmh E 9.0 mph14.5 kmh 29.92 in1013.2 mb 0.00 in0.0 mm 0.00 in0.0 mm 0.00 in0.0 mm
06:15 AM 35.0°F1.7°C 32.1°F0.1°C 89% Calm Calm 7.0 mph11.3 kmh 29.92 in1013.2 mb 0.00 in0.0 mm 0.00 in0.0 mm 0.00 in0.0 mm
06:20 AM 35.0°F1.7°C 32.1°F0.1°C 89% 2.0 mph E3.2 kmh E 6.0 mph9.7 kmh 29.92 in1013.2 mb 0.00 in0.0 mm 0.00 in0.0 mm 0.00 in0.0 mm
06:25 AM 35.0°F1.7°C 32.1°F0.1°C 89% 1.0 mph NE1.6 kmh NE 8.0 mph12.9 kmh 29.91 in1012.9 mb 0.00 in0.0 mm 0.00 in0.0 mm 0.00 in0.0 mm
06:29 AM 34.9°F1.6°C 32.3°F0.2°C 90% Calm Calm 12.0 mph19.3 kmh 29.91 in1012.9 mb 0.00 in0.0 mm 0.00 in0.0 mm 0.00 in0.0 mm
06:35 AM 34.9°F1.6°C 32.3°F0.2°C 90% 2.0 mph ENE3.2 kmh ENE 9.0 mph14.5 kmh 29.91 in1012.9 mb 0.01 in0.3 mm 0.10 in2.5 mm 0.01 in0.3 mm
06:40 AM 34.8°F1.6°C 32.2°F0.1°C 90% 6.0 mph ENE9.7 kmh ENE 8.0 mph12.9 kmh 29.90 in1012.5 mb 0.01 in0.3 mm 0.00 in0.0 mm 0.01 in0.3 mm
06:45 AM 34.7°F1.5°C 32.1°F0.1°C 90% 4.0 mph E6.4 kmh E 9.0 mph14.5 kmh 29.89 in1012.2 mb 0.01 in0.3 mm 0.00 in0.0 mm 0.01 in0.3 mm
06:50 AM 34.6°F1.4°C 32.0°F0.0°C 90% 3.0 mph E4.8 kmh E 6.0 mph9.7 kmh 29.89 in1012.2 mb 0.02 in0.5 mm 0.12 in3.0 mm 0.02 in0.5 mm
06:54 AM 34.5°F1.4°C 31.9°F-0.1°C 90% 2.0 mph E3.2 kmh E 9.0 mph14.5 kmh 29.88 in1011.9 mb 0.03 in0.8 mm 0.15 in3.8 mm 0.03 in0.8 mm
07:00 AM 34.5°F1.4°C 32.2°F0.1°C 91% 6.0 mph NE9.7 kmh NE 10.0 mph16.1 kmh 29.88 in1011.9 mb 0.03 in0.8 mm 0.00 in0.0 mm 0.03 in0.8 mm
07:04 AM 34.4°F1.3°C 32.1°F0.1°C 91% 4.0 mph E6.4 kmh E 9.0 mph14.5 kmh 29.88 in1011.9 mb 0.03 in0.8 mm 0.00 in0.0 mm 0.03 in0.8 mm
07:09 AM 34.4°F1.3°C 32.1°F0.1°C 91% 4.0 mph ENE6.4 kmh ENE 7.0 mph11.3 kmh 29.88 in1011.9 mb 0.04 in1.0 mm 0.12 in3.0 mm 0.04 in1.0 mm
07:14 AM 34.4°F1.3°C 32.1°F0.1°C 91% 6.0 mph NE9.7 kmh NE 8.0 mph12.9 kmh 29.89 in1012.2 mb 0.04 in1.0 mm 0.00 in0.0 mm 0.04 in1.0 mm
07:20 AM 34.4°F1.3°C 32.1°F0.1°C 91% 2.0 mph E3.2 kmh E 8.0 mph12.9 kmh 29.89 in1012.2 mb 0.05 in1.3 mm 0.10 in2.5 mm 0.05 in1.3 mm
07:25 AM 34.4°F1.3°C 32.1°F0.1°C 91% 2.0 mph E3.2 kmh E 5.0 mph8.0 kmh 29.89 in1012.2 mb 0.06 in1.5 mm 0.12 in3.0 mm 0.06 in1.5 mm
07:30 AM 34.4°F1.3°C 32.1°F0.1°C 91% 3.0 mph NE4.8 kmh NE 7.0 mph11.3 kmh 29.88 in1011.9 mb 0.07 in1.8 mm 0.12 in3.0 mm 0.07 in1.8 mm
07:35 AM 34.4°F1.3°C 32.1°F0.1°C 91% 2.0 mph NE3.2 kmh NE 6.0 mph9.7 kmh 29.88 in1011.9 mb 0.07 in1.8 mm 0.00 in0.0 mm 0.07 in1.8 mm
07:40 AM 34.4°F1.3°C 32.3°F0.2°C 92% 2.0 mph ESE3.2 kmh ESE 12.0 mph19.3 kmh 29.87 in1011.5 mb 0.07 in1.8 mm 0.00 in0.0 mm 0.07 in1.8 mm
07:45 AM 34.4°F1.3°C 32.3°F0.2°C 92% 4.0 mph ESE6.4 kmh ESE 7.0 mph11.3 kmh 29.88 in1011.9 mb 0.08 in2.0 mm 0.12 in3.0 mm 0.08 in2.0 mm
07:49 AM 34.4°F1.3°C 32.3°F0.2°C 92% 6.0 mph NE9.7 kmh NE 9.0 mph14.5 kmh 29.88 in1011.9 mb 0.08 in2.0 mm 0.00 in0.0 mm 0.08 in2.0 mm
07:55 AM 34.4°F1.3°C 32.3°F0.2°C 92% 3.0 mph ENE4.8 kmh ENE 4.0 mph6.4 kmh 29.88 in1011.9 mb 0.09 in2.3 mm 0.10 in2.5 mm 0.09 in2.3 mm
08:00 AM 34.4°F1.3°C 32.3°F0.2°C 92% 6.0 mph NE9.7 kmh NE 6.0 mph9.7 kmh 29.87 in1011.5 mb 0.08 in2.0 mm 0.00 in0.0 mm 0.09 in2.3 mm
08:05 AM 34.4°F1.3°C 32.3°F0.2°C 92% 3.0 mph NE4.8 kmh NE 10.0 mph16.1 kmh 29.86 in1011.2 mb 0.09 in2.3 mm 0.12 in3.0 mm 0.10 in2.5 mm
08:10 AM 34.4°F1.3°C 32.3°F0.2°C 92% Calm Calm 4.0 mph6.4 kmh 29.86 in1011.2 mb 0.10 in2.5 mm 0.12 in3.0 mm 0.11 in2.8 mm
08:15 AM 34.4°F1.3°C 32.3°F0.2°C 92% 3.0 mph E4.8 kmh E 7.0 mph11.3 kmh 29.86 in1011.2 mb 0.09 in2.3 mm 0.00 in0.0 mm 0.11 in2.8 mm
08:20 AM 34.4°F1.3°C 32.3°F0.2°C 92% 2.0 mph ENE3.2 kmh ENE 10.0 mph16.1 kmh 29.85 in1010.8 mb 0.10 in2.5 mm 0.12 in3.0 mm 0.12 in3.0 mm
08:24 AM 34.4°F1.3°C 32.3°F0.2°C 92% 3.0 mph NNE4.8 kmh NNE 6.0 mph9.7 kmh 29.85 in1010.8 mb 0.10 in2.5 mm 0.00 in0.0 mm 0.12 in3.0 mm
08:30 AM 34.4°F1.3°C 32.3°F0.2°C 92% 2.0 mph E3.2 kmh E 10.0 mph16.1 kmh 29.85 in1010.8 mb 0.09 in2.3 mm 0.00 in0.0 mm 0.12 in3.0 mm
08:35 AM 34.3°F1.3°C 32.2°F0.1°C 92% 9.0 mph NE14.5 kmh NE 9.0 mph14.5 kmh 29.84 in1010.5 mb 0.08 in2.0 mm 0.00 in0.0 mm 0.12 in3.0 mm
08:40 AM 34.4°F1.3°C 32.3°F0.2°C 92% 2.0 mph ENE3.2 kmh ENE 8.0 mph12.9 kmh 29.83 in1010.2 mb 0.08 in2.0 mm 0.00 in0.0 mm 0.12 in3.0 mm
08:44 AM 34.4°F1.3°C 32.3°F0.2°C 92% 1.0 mph NE1.6 kmh NE 10.0 mph16.1 kmh 29.83 in1010.2 mb 0.07 in1.8 mm 0.00 in0.0 mm 0.12 in3.0 mm
08:50 AM 34.4°F1.3°C 32.3°F0.2°C 92% 1.0 mph E1.6 kmh E 8.0 mph12.9 kmh 29.83 in1010.2 mb 0.07 in1.8 mm 0.00 in0.0 mm 0.12 in3.0 mm
08:55 AM 34.5°F1.4°C 32.4°F0.2°C 92% 5.0 mph E8.0 kmh E 8.0 mph12.9 kmh 29.83 in1010.2 mb 0.06 in1.5 mm 0.00 in0.0 mm 0.12 in3.0 mm
09:00 AM 34.5°F1.4°C 32.4°F0.2°C 92% 4.0 mph ENE6.4 kmh ENE 11.0 mph17.7 kmh 29.83 in1010.2 mb 0.05 in1.3 mm 0.00 in0.0 mm 0.12 in3.0 mm
09:05 AM 34.5°F1.4°C 32.4°F0.2°C 92% 2.0 mph SE3.2 kmh SE 10.0 mph16.1 kmh 29.83 in1010.2 mb 0.04 in1.0 mm 0.00 in0.0 mm 0.12 in3.0 mm
09:09 AM 34.6°F1.4°C 32.5°F0.3°C 92% 2.0 mph E3.2 kmh E 9.0 mph14.5 kmh 29.83 in1010.2 mb 0.05 in1.3 mm 0.15 in3.8 mm 0.13 in3.3 mm
09:14 AM 34.6°F1.4°C 32.5°F0.3°C 92% 2.0 mph E3.2 kmh E 7.0 mph11.3 kmh 29.82 in1009.8 mb 0.04 in1.0 mm 0.00 in0.0 mm 0.13 in3.3 mm
09:20 AM 34.6°F1.4°C 32.5°F0.3°C 92% Calm Calm 9.0 mph14.5 kmh 29.82 in1009.8 mb 0.03 in0.8 mm 0.00 in0.0 mm 0.13 in3.3 mm
09:25 AM 34.6°F1.4°C 32.5°F0.3°C 92% 2.0 mph E3.2 kmh E 8.0 mph12.9 kmh 29.82 in1009.8 mb 0.03 in0.8 mm 0.00 in0.0 mm 0.13 in3.3 mm
09:30 AM 34.6°F1.4°C 32.5°F0.3°C 92% 3.0 mph ESE4.8 kmh ESE 10.0 mph16.1 kmh 29.81 in1009.5 mb 0.03 in0.8 mm 0.00 in0.0 mm 0.13 in3.3 mm
09:35 AM 34.6°F1.4°C 32.5°F0.3°C 92% 8.0 mph NE12.9 kmh NE 13.0 mph20.9 kmh 29.81 in1009.5 mb 0.03 in0.8 mm 0.00 in0.0 mm 0.13 in3.3 mm
09:40 AM 34.7°F1.5°C 32.6°F0.3°C 92% 4.0 mph NE6.4 kmh NE 8.0 mph12.9 kmh 29.81 in1009.5 mb 0.02 in0.5 mm 0.00 in0.0 mm 0.13 in3.3 mm
09:45 AM 34.7°F1.5°C 32.6°F0.3°C 92% 8.0 mph E12.9 kmh E 9.0 mph14.5 kmh 29.81 in1009.5 mb 0.02 in0.5 mm 0.00 in0.0 mm 0.13 in3.3 mm
09:50 AM 34.7°F1.5°C 32.6°F0.3°C 92% 9.0 mph NE14.5 kmh NE 10.0 mph16.1 kmh 29.81 in1009.5 mb 0.02 in0.5 mm 0.00 in0.0 mm 0.13 in3.3 mm
09:55 AM 34.8°F1.6°C 32.7°F0.4°C 92% 1.0 mph E1.6 kmh E 8.0 mph12.9 kmh 29.80 in1009.1 mb 0.03 in0.8 mm 0.12 in3.0 mm 0.14 in3.6 mm
10:00 AM 34.8°F1.6°C 32.7°F0.4°C 92% 2.0 mph E3.2 kmh E 7.0 mph11.3 kmh 29.80 in1009.1 mb 0.03 in0.8 mm 0.00 in0.0 mm 0.14 in3.6 mm
10:04 AM 34.8°F1.6°C 32.7°F0.4°C 92% 2.0 mph E3.2 kmh E 9.0 mph14.5 kmh 29.80 in1009.1 mb 0.03 in0.8 mm 0.00 in0.0 mm 0.14 in3.6 mm
10:10 AM 34.8°F1.6°C 32.7°F0.4°C 92% 1.0 mph E1.6 kmh E 10.0 mph16.1 kmh 29.80 in1009.1 mb 0.02 in0.5 mm 0.00 in0.0 mm 0.14 in3.6 mm
10:15 AM 34.8°F1.6°C 32.7°F0.4°C 92% 7.0 mph NE11.3 kmh NE 9.0 mph14.5 kmh 29.80 in1009.1 mb 0.02 in0.5 mm 0.00 in0.0 mm 0.14 in3.6 mm
10:20 AM 34.9°F1.6°C 32.8°F0.4°C 92% Calm Calm 10.0 mph16.1 kmh 29.80 in1009.1 mb 0.02 in0.5 mm 0.00 in0.0 mm 0.14 in3.6 mm
10:25 AM 34.9°F1.6°C 32.8°F0.4°C 92% 5.0 mph E8.0 kmh E 6.0 mph9.7 kmh 29.80 in1009.1 mb 0.02 in0.5 mm 0.00 in0.0 mm 0.14 in3.6 mm
10:30 AM 35.0°F1.7°C 32.9°F0.5°C 92% 5.0 mph ENE8.0 kmh ENE 9.0 mph14.5 kmh 29.80 in1009.1 mb 0.02 in0.5 mm 0.00 in0.0 mm 0.14 in3.6 mm
10:34 AM 35.0°F1.7°C 32.9°F0.5°C 92% 6.0 mph ENE9.7 kmh ENE 6.0 mph9.7 kmh 29.80 in1009.1 mb 0.01 in0.3 mm 0.00 in0.0 mm 0.14 in3.6 mm
10:40 AM 35.0°F1.7°C 32.9°F0.5°C 92% 8.0 mph E12.9 kmh E 12.0 mph19.3 kmh 29.80 in1009.1 mb 0.02 in0.5 mm 0.10 in2.5 mm 0.15 in3.8 mm
10:45 AM 35.0°F1.7°C 32.9°F0.5°C 92% 4.0 mph ENE6.4 kmh ENE 6.0 mph9.7 kmh 29.80 in1009.1 mb 0.02 in0.5 mm 0.00 in0.0 mm 0.15 in3.8 mm
10:49 AM 35.1°F1.7°C 33.0°F0.6°C 92% 9.0 mph E14.5 kmh E 9.0 mph14.5 kmh 29.80 in1009.1 mb 0.02 in0.5 mm 0.00 in0.0 mm 0.15 in3.8 mm
10:55 AM 35.1°F1.7°C 33.0°F0.6°C 92% 5.0 mph ENE8.0 kmh ENE 9.0 mph14.5 kmh 29.79 in1008.8 mb 0.02 in0.5 mm 0.00 in0.0 mm 0.15 in3.8 mm
11:00 AM 35.1°F1.7°C 33.0°F0.6°C 92% 1.0 mph E1.6 kmh E 12.0 mph19.3 kmh 29.79 in1008.8 mb 0.02 in0.5 mm 0.00 in0.0 mm 0.15 in3.8 mm
11:05 AM 35.1°F1.7°C 33.0°F0.6°C 92% 2.0 mph ENE3.2 kmh ENE 6.0 mph9.7 kmh 29.79 in1008.8 mb 0.02 in0.5 mm 0.00 in0.0 mm 0.15 in3.8 mm
11:09 AM 35.1°F1.7°C 33.0°F0.6°C 92% 3.0 mph E4.8 kmh E 8.0 mph12.9 kmh 29.79 in1008.8 mb 0.03 in0.8 mm 0.15 in3.8 mm 0.16 in4.1 mm
11:15 AM 35.1°F1.7°C 33.0°F0.6°C 92% 3.0 mph E4.8 kmh E 7.0 mph11.3 kmh 29.79 in1008.8 mb 0.03 in0.8 mm 0.00 in0.0 mm 0.16 in4.1 mm
11:20 AM 35.2°F1.8°C 33.1°F0.6°C 92% 3.0 mph E4.8 kmh E 8.0 mph12.9 kmh 29.79 in1008.8 mb 0.04 in1.0 mm 0.12 in3.0 mm 0.17 in4.3 mm
11:24 AM 35.2°F1.8°C 33.1°F0.6°C 92% 2.0 mph NE3.2 kmh NE 10.0 mph16.1 kmh 29.79 in1008.8 mb 0.05 in1.3 mm 0.15 in3.8 mm 0.18 in4.6 mm
11:29 AM 35.2°F1.8°C 33.1°F0.6°C 92% 2.0 mph ENE3.2 kmh ENE 9.0 mph14.5 kmh 29.79 in1008.8 mb 0.05 in1.3 mm 0.00 in0.0 mm 0.18 in4.6 mm
11:34 AM 35.2°F1.8°C 33.1°F0.6°C 92% 4.0 mph ENE6.4 kmh ENE 5.0 mph8.0 kmh 29.79 in1008.8 mb 0.06 in1.5 mm 0.12 in3.0 mm 0.19 in4.8 mm
11:40 AM 35.2°F1.8°C 33.1°F0.6°C 92% 2.0 mph ENE3.2 kmh ENE 9.0 mph14.5 kmh 29.79 in1008.8 mb 0.07 in1.8 mm 0.10 in2.5 mm 0.20 in5.1 mm
11:45 AM 35.1°F1.7°C 33.0°F0.6°C 92% 5.0 mph NNE8.0 kmh NNE 8.0 mph12.9 kmh 29.79 in1008.8 mb 0.06 in1.5 mm 0.00 in0.0 mm 0.20 in5.1 mm
11:50 AM 35.1°F1.7°C 33.0°F0.6°C 92% 6.0 mph NE9.7 kmh NE 13.0 mph20.9 kmh 29.78 in1008.5 mb 0.07 in1.8 mm 0.12 in3.0 mm 0.21 in5.3 mm
11:55 AM 35.0°F1.7°C 32.9°F0.5°C 92% 4.0 mph NE6.4 kmh NE 6.0 mph9.7 kmh 29.79 in1008.8 mb 0.08 in2.0 mm 0.12 in3.0 mm 0.22 in5.6 mm
12:00 PM 35.1°F1.7°C 33.0°F0.6°C 92% 3.0 mph NNE4.8 kmh NNE 9.0 mph14.5 kmh 29.79 in1008.8 mb 0.08 in2.0 mm 0.00 in0.0 mm 0.22 in5.6 mm
12:05 PM 35.0°F1.7°C 32.9°F0.5°C 92% 3.0 mph ENE4.8 kmh ENE 10.0 mph16.1 kmh 29.78 in1008.5 mb 0.08 in2.0 mm 0.00 in0.0 mm 0.22 in5.6 mm
12:10 PM 34.9°F1.6°C 32.8°F0.4°C 92% 1.0 mph NE1.6 kmh NE 10.0 mph16.1 kmh 29.78 in1008.5 mb 0.09 in2.3 mm 0.12 in3.0 mm 0.23 in5.8 mm
12:14 PM 34.9°F1.6°C 32.8°F0.4°C 92% 5.0 mph ENE8.0 kmh ENE 15.0 mph24.1 kmh 29.79 in1008.8 mb 0.09 in2.3 mm 0.00 in0.0 mm 0.23 in5.8 mm
12:20 PM 34.9°F1.6°C 32.8°F0.4°C 92% 4.0 mph N6.4 kmh N 7.0 mph11.3 kmh 29.79 in1008.8 mb 0.08 in2.0 mm 0.00 in0.0 mm 0.23 in5.8 mm
12:25 PM 34.8°F1.6°C 32.7°F0.4°C 92% 4.0 mph NNE6.4 kmh NNE 9.0 mph14.5 kmh 29.79 in1008.8 mb 0.09 in2.3 mm 0.12 in3.0 mm 0.24 in6.1 mm
12:29 PM 34.9°F1.6°C 32.8°F0.4°C 92% 11.0 mph NNW17.7 kmh NNW 11.0 mph17.7 kmh 29.79 in1008.8 mb 0.09 in2.3 mm 0.00 in0.0 mm 0.24 in6.1 mm
12:35 PM 34.8°F1.6°C 32.7°F0.4°C 92% 6.0 mph NE9.7 kmh NE 12.0 mph19.3 kmh 29.78 in1008.5 mb 0.08 in2.0 mm 0.00 in0.0 mm 0.24 in6.1 mm
12:40 PM 34.7°F1.5°C 32.6°F0.3°C 92% 9.0 mph NNE14.5 kmh NNE 14.0 mph22.5 kmh 29.78 in1008.5 mb 0.09 in2.3 mm 0.12 in3.0 mm 0.25 in6.4 mm
12:45 PM 34.7°F1.5°C 32.6°F0.3°C 92% 8.0 mph NNE12.9 kmh NNE 13.0 mph20.9 kmh 29.78 in1008.5 mb 0.09 in2.3 mm 0.00 in0.0 mm 0.25 in6.4 mm
12:50 PM 34.7°F1.5°C 32.6°F0.3°C 92% 10.0 mph NE16.1 kmh NE 13.0 mph20.9 kmh 29.78 in1008.5 mb 0.08 in2.0 mm 0.00 in0.0 mm 0.25 in6.4 mm
12:55 PM 34.6°F1.4°C 32.5°F0.3°C 92% 6.0 mph NE9.7 kmh NE 12.0 mph19.3 kmh 29.77 in1008.1 mb 0.09 in2.3 mm 0.12 in3.0 mm 0.26 in6.6 mm
01:00 PM 34.6°F1.4°C 32.5°F0.3°C 92% 11.0 mph NNE17.7 kmh NNE 11.0 mph17.7 kmh 29.77 in1008.1 mb 0.09 in2.3 mm 0.00 in0.0 mm 0.26 in6.6 mm
01:05 PM 34.6°F1.4°C 32.5°F0.3°C 92% 6.0 mph ENE9.7 kmh ENE 11.0 mph17.7 kmh 29.77 in1008.1 mb 0.08 in2.0 mm 0.00 in0.0 mm 0.26 in6.6 mm
01:10 PM 34.6°F1.4°C 32.5°F0.3°C 92% 12.0 mph N19.3 kmh N 12.0 mph19.3 kmh 29.77 in1008.1 mb 0.09 in2.3 mm 0.12 in3.0 mm 0.27 in6.9 mm
01:15 PM 34.5°F1.4°C 32.4°F0.2°C 92% 7.0 mph NNE11.3 kmh NNE 9.0 mph14.5 kmh 29.76 in1007.8 mb 0.08 in2.0 mm 0.00 in0.0 mm 0.27 in6.9 mm
01:20 PM 34.4°F1.3°C 32.3°F0.2°C 92% 10.0 mph N16.1 kmh N 11.0 mph17.7 kmh 29.76 in1007.8 mb 0.07 in1.8 mm 0.00 in0.0 mm 0.27 in6.9 mm
01:24 PM 34.4°F1.3°C 32.3°F0.2°C 92% 5.0 mph N8.0 kmh N 13.0 mph20.9 kmh 29.76 in1007.8 mb 0.07 in1.8 mm 0.00 in0.0 mm 0.27 in6.9 mm
01:29 PM 34.3°F1.3°C 32.2°F0.1°C 92% 3.0 mph NNE4.8 kmh NNE 14.0 mph22.5 kmh 29.75 in1007.5 mb 0.07 in1.8 mm 0.00 in0.0 mm 0.27 in6.9 mm
01:35 PM 34.3°F1.3°C 32.2°F0.1°C 92% 6.0 mph NE9.7 kmh NE 12.0 mph19.3 kmh 29.75 in1007.5 mb 0.06 in1.5 mm 0.00 in0.0 mm 0.27 in6.9 mm
01:39 PM 34.1°F1.2°C 32.0°F0.0°C 92% 2.0 mph N3.2 kmh N 10.0 mph16.1 kmh 29.75 in1007.5 mb 0.05 in1.3 mm 0.00 in0.0 mm 0.27 in6.9 mm
01:45 PM 34.1°F1.2°C 32.0°F0.0°C 92% 9.0 mph NE14.5 kmh NE 11.0 mph17.7 kmh 29.75 in1007.5 mb 0.05 in1.3 mm 0.00 in0.0 mm 0.27 in6.9 mm
01:49 PM 33.9°F1.1°C 31.8°F-0.1°C 92% 10.0 mph NNE16.1 kmh NNE 16.0 mph25.7 kmh 29.75 in1007.5 mb 0.04 in1.0 mm 0.00 in0.0 mm 0.27 in6.9 mm
01:55 PM 33.7°F0.9°C 31.6°F-0.2°C 92% 10.0 mph NNE16.1 kmh NNE 16.0 mph25.7 kmh 29.74 in1007.1 mb 0.04 in1.0 mm 0.00 in0.0 mm 0.27 in6.9 mm
01:59 PM 33.6°F0.9°C 31.5°F-0.3°C 92% 13.0 mph NNE20.9 kmh NNE 14.0 mph22.5 kmh 29.74 in1007.1 mb 0.04 in1.0 mm 0.00 in0.0 mm 0.27 in6.9 mm
02:04 PM 33.5°F0.8°C 31.4°F-0.3°C 92% 10.0 mph NNE16.1 kmh NNE 23.0 mph37.0 kmh 29.74 in1007.1 mb 0.04 in1.0 mm 0.00 in0.0 mm 0.27 in6.9 mm
02:10 PM 33.5°F0.8°C 31.7°F-0.2°C 93% 9.0 mph NE14.5 kmh NE 17.0 mph27.4 kmh 29.74 in1007.1 mb 0.04 in1.0 mm 0.00 in0.0 mm 0.27 in6.9 mm
02:14 PM 33.4°F0.8°C 31.3°F-0.4°C 92% 4.0 mph N6.4 kmh N 13.0 mph20.9 kmh 29.73 in1006.8 mb 0.03 in0.8 mm 0.00 in0.0 mm 0.27 in6.9 mm
02:19 PM 33.3°F0.7°C 31.2°F-0.4°C 92% 12.0 mph NNE19.3 kmh NNE 14.0 mph22.5 kmh 29.73 in1006.8 mb 0.04 in1.0 mm 0.12 in3.0 mm 0.28 in7.1 mm
02:25 PM 33.3°F0.7°C 31.2°F-0.4°C 92% 12.0 mph N19.3 kmh N 15.0 mph24.1 kmh 29.72 in1006.4 mb 0.04 in1.0 mm 0.00 in0.0 mm 0.28 in7.1 mm
02:29 PM 33.3°F0.7°C 31.2°F-0.4°C 92% 9.0 mph N14.5 kmh N 13.0 mph20.9 kmh 29.72 in1006.4 mb 0.03 in0.8 mm 0.00 in0.0 mm 0.28 in7.1 mm
02:35 PM 33.3°F0.7°C 31.2°F-0.4°C 92% 6.0 mph N9.7 kmh N 13.0 mph20.9 kmh 29.72 in1006.4 mb 0.03 in0.8 mm 0.00 in0.0 mm 0.28 in7.1 mm
02:40 PM 33.2°F0.7°C 31.1°F-0.5°C 92% 5.0 mph NNE8.0 kmh NNE 9.0 mph14.5 kmh 29.71 in1006.1 mb 0.04 in1.0 mm 0.12 in3.0 mm 0.29 in7.4 mm
02:44 PM 33.2°F0.7°C 31.1°F-0.5°C 92% 10.0 mph NNE16.1 kmh NNE 13.0 mph20.9 kmh 29.71 in1006.1 mb 0.04 in1.0 mm 0.00 in0.0 mm 0.29 in7.4 mm
02:50 PM 33.0°F0.6°C 30.9°F-0.6°C 92% 10.0 mph NNE16.1 kmh NNE 15.0 mph24.1 kmh 29.71 in1006.1 mb 0.04 in1.0 mm 0.00 in0.0 mm 0.29 in7.4 mm
02:55 PM 32.9°F0.5°C 30.8°F-0.7°C 92% 8.0 mph N12.9 kmh N 12.0 mph19.3 kmh 29.70 in1005.8 mb 0.03 in0.8 mm 0.00 in0.0 mm 0.29 in7.4 mm
03:00 PM 32.7°F0.4°C 30.6°F-0.8°C 92% 8.0 mph NNW12.9 kmh NNW 14.0 mph22.5 kmh 29.70 in1005.8 mb 0.04 in1.0 mm 0.01 in0.3 mm 0.30 in7.6 mm
03:05 PM 32.7°F0.4°C 30.6°F-0.8°C 92% 3.0 mph NE4.8 kmh NE 16.0 mph25.7 kmh 29.70 in1005.8 mb 0.04 in1.0 mm 0.00 in0.0 mm 0.30 in7.6 mm
03:09 PM 32.8°F0.4°C 30.7°F-0.7°C 92% 5.0 mph N8.0 kmh N 12.0 mph19.3 kmh 29.69 in1005.4 mb 0.03 in0.8 mm 0.00 in0.0 mm 0.30 in7.6 mm
03:14 PM 32.7°F0.4°C 30.6°F-0.8°C 92% 11.0 mph NE17.7 kmh NE 17.0 mph27.4 kmh 29.69 in1005.4 mb 0.03 in0.8 mm 0.00 in0.0 mm 0.30 in7.6 mm
03:20 PM 32.5°F0.3°C 30.4°F-0.9°C 92% 8.0 mph N12.9 kmh N 17.0 mph27.4 kmh 29.69 in1005.4 mb 0.03 in0.8 mm 0.00 in0.0 mm 0.30 in7.6 mm
03:25 PM 32.5°F0.3°C 30.4°F-0.9°C 92% 10.0 mph NE16.1 kmh NE 13.0 mph20.9 kmh 29.69 in1005.4 mb 0.02 in0.5 mm 0.00 in0.0 mm 0.30 in7.6 mm
03:30 PM 32.4°F0.2°C 30.3°F-0.9°C 92% 5.0 mph N8.0 kmh N 15.0 mph24.1 kmh 29.69 in1005.4 mb 0.02 in0.5 mm 0.00 in0.0 mm 0.30 in7.6 mm
03:35 PM 32.3°F0.2°C 30.2°F-1.0°C 92% 18.0 mph N29.0 kmh N 18.0 mph29.0 kmh 29.69 in1005.4 mb 0.02 in0.5 mm 0.00 in0.0 mm 0.30 in7.6 mm
03:39 PM 32.3°F0.2°C 30.2°F-1.0°C 92% 18.0 mph NNE29.0 kmh NNE 18.0 mph29.0 kmh 29.69 in1005.4 mb 0.02 in0.5 mm 0.00 in0.0 mm 0.30 in7.6 mm
03:45 PM 32.3°F0.2°C 30.2°F-1.0°C 92% 8.0 mph NNE12.9 kmh NNE 13.0 mph20.9 kmh 29.69 in1005.4 mb 0.01 in0.3 mm 0.00 in0.0 mm 0.30 in7.6 mm
03:50 PM 32.2°F0.1°C 29.9°F-1.2°C 91% 8.0 mph N12.9 kmh N 20.0 mph32.2 kmh 29.69 in1005.4 mb 0.01 in0.3 mm 0.00 in0.0 mm 0.30 in7.6 mm
03:55 PM 32.2°F0.1°C 29.9°F-1.2°C 91% 11.0 mph NE17.7 kmh NE 13.0 mph20.9 kmh 29.69 in1005.4 mb 0.01 in0.3 mm 0.00 in0.0 mm 0.30 in7.6 mm
03:59 PM 32.2°F0.1°C 29.9°F-1.2°C 91% 10.0 mph NE16.1 kmh NE 18.0 mph29.0 kmh 29.69 in1005.4 mb 0.00 in0.0 mm 0.00 in0.0 mm 0.30 in7.6 mm
04:04 PM 32.2°F0.1°C 29.9°F-1.2°C 91% 5.0 mph NNE8.0 kmh NNE 13.0 mph20.9 kmh 29.69 in1005.4 mb 0.00 in0.0 mm 0.00 in0.0 mm 0.30 in7.6 mm
04:10 PM 32.2°F0.1°C 29.9°F-1.2°C 91% 16.0 mph NE25.7 kmh NE 16.0 mph25.7 kmh 29.69 in1005.4 mb 0.00 in0.0 mm 0.00 in0.0 mm 0.30 in7.6 mm
04:15 PM 32.2°F0.1°C 29.9°F-1.2°C 91% 8.0 mph NE12.9 kmh NE 17.0 mph27.4 kmh 29.69 in1005.4 mb 0.00 in0.0 mm 0.00 in0.0 mm 0.30 in7.6 mm
04:20 PM 32.2°F0.1°C 29.9°F-1.2°C 91% 3.0 mph NE4.8 kmh NE 10.0 mph16.1 kmh 29.69 in1005.4 mb 0.00 in0.0 mm 0.00 in0.0 mm 0.30 in7.6 mm
04:24 PM 32.1°F0.1°C 29.5°F-1.4°C 90% 8.0 mph N12.9 kmh N 18.0 mph29.0 kmh 29.69 in1005.4 mb 0.00 in0.0 mm 0.00 in0.0 mm 0.30 in7.6 mm
04:30 PM 32.1°F0.1°C 29.5°F-1.4°C 90% 8.0 mph NE12.9 kmh NE 16.0 mph25.7 kmh 29.69 in1005.4 mb 0.00 in0.0 mm 0.00 in0.0 mm 0.30 in7.6 mm
04:35 PM 32.1°F0.1°C 29.5°F-1.4°C 90% 8.0 mph N12.9 kmh N 19.0 mph30.6 kmh 29.69 in1005.4 mb 0.00 in0.0 mm 0.00 in0.0 mm 0.30 in7.6 mm
04:40 PM 32.0°F0.0°C 29.4°F-1.4°C 90% 14.0 mph ENE22.5 kmh ENE 15.0 mph24.1 kmh 29.69 in1005.4 mb 0.00 in0.0 mm 0.00 in0.0 mm 0.30 in7.6 mm
04:45 PM 32.0°F0.0°C 29.4°F-1.4°C 90% 7.0 mph NNE11.3 kmh NNE 21.0 mph33.8 kmh 29.69 in1005.4 mb 0.00 in0.0 mm 0.00 in0.0 mm 0.30 in7.6 mm
04:50 PM 31.9°F-0.1°C 29.0°F-1.7°C 89% 10.0 mph N16.1 kmh N 15.0 mph24.1 kmh 29.68 in1005.1 mb 0.00 in0.0 mm 0.00 in0.0 mm 0.30 in7.6 mm
04:55 PM 31.7°F-0.2°C 28.8°F-1.8°C 89% 12.0 mph NNE19.3 kmh NNE 19.0 mph30.6 kmh 29.68 in1005.1 mb 0.00 in0.0 mm 0.00 in0.0 mm 0.30 in7.6 mm
05:00 PM 31.7°F-0.2°C 28.8°F-1.8°C 89% 10.0 mph NE16.1 kmh NE 16.0 mph25.7 kmh 29.68 in1005.1 mb 0.00 in0.0 mm 0.00 in0.0 mm 0.30 in7.6 mm
05:05 PM 31.6°F-0.2°C 28.7°F-1.8°C 89% 8.0 mph N12.9 kmh N 15.0 mph24.1 kmh 29.68 in1005.1 mb 0.00 in0.0 mm 0.00 in0.0 mm 0.30 in7.6 mm
05:10 PM 31.2°F-0.4°C 28.3°F-2.1°C 89% 8.0 mph NE12.9 kmh NE 18.0 mph29.0 kmh 29.68 in1005.1 mb 0.00 in0.0 mm 0.00 in0.0 mm 0.30 in7.6 mm
05:15 PM 30.6°F-0.8°C 27.8°F-2.3°C 89% 18.0 mph NE29.0 kmh NE 18.0 mph29.0 kmh 29.68 in1005.1 mb 0.00 in0.0 mm 0.00 in0.0 mm 0.30 in7.6 mm
05:20 PM 30.3°F-0.9°C 27.5°F-2.5°C 89% 8.0 mph NNE12.9 kmh NNE 15.0 mph24.1 kmh 29.67 in1004.7 mb 0.00 in0.0 mm 0.00 in0.0 mm 0.30 in7.6 mm
05:25 PM 30.1°F-1.1°C 27.3°F-2.6°C 89% 9.0 mph N14.5 kmh N 16.0 mph25.7 kmh 29.68 in1005.1 mb 0.00 in0.0 mm 0.00 in0.0 mm 0.30 in7.6 mm
05:30 PM 29.9°F-1.2°C 27.1°F-2.7°C 89% 7.0 mph NNE11.3 kmh NNE 20.0 mph32.2 kmh 29.68 in1005.1 mb 0.00 in0.0 mm 0.00 in0.0 mm 0.30 in7.6 mm
05:35 PM 29.8°F-1.2°C 27.0°F-2.8°C 89% 8.0 mph N12.9 kmh N 17.0 mph27.4 kmh 29.70 in1005.8 mb 0.00 in0.0 mm 0.00 in0.0 mm 0.30 in7.6 mm
05:40 PM 29.7°F-1.3°C 26.9°F-2.8°C 89% 9.0 mph NNE14.5 kmh NNE 15.0 mph24.1 kmh 29.70 in1005.8 mb 0.00 in0.0 mm 0.00 in0.0 mm 0.30 in7.6 mm
05:45 PM 29.6°F-1.3°C 26.8°F-2.9°C 89% 17.0 mph NE27.4 kmh NE 17.0 mph27.4 kmh 29.70 in1005.8 mb 0.00 in0.0 mm 0.00 in0.0 mm 0.30 in7.6 mm
05:50 PM 29.3°F-1.5°C 26.5°F-3.1°C 89% 15.0 mph NE24.1 kmh NE 16.0 mph25.7 kmh 29.71 in1006.1 mb 0.00 in0.0 mm 0.00 in0.0 mm 0.30 in7.6 mm
05:55 PM 29.2°F-1.6°C 26.4°F-3.1°C 89% 14.0 mph NE22.5 kmh NE 17.0 mph27.4 kmh 29.69 in1005.4 mb 0.00 in0.0 mm 0.00 in0.0 mm 0.30 in7.6 mm
06:00 PM 29.0°F-1.7°C 26.2°F-3.2°C 89% 9.0 mph NNE14.5 kmh NNE 17.0 mph27.4 kmh 29.68 in1005.1 mb 0.00 in0.0 mm 0.00 in0.0 mm 0.30 in7.6 mm
06:05 PM 28.9°F-1.7°C 26.1°F-3.3°C 89% 5.0 mph NE8.0 kmh NE 24.0 mph38.6 kmh 29.67 in1004.7 mb 0.00 in0.0 mm 0.00 in0.0 mm 0.30 in7.6 mm
06:10 PM 28.7°F-1.8°C 25.9°F-3.4°C 89% 15.0 mph NNE24.1 kmh NNE 23.0 mph37.0 kmh 29.66 in1004.4 mb 0.00 in0.0 mm 0.00 in0.0 mm 0.30 in7.6 mm
06:14 PM 28.7°F-1.8°C 25.6°F-3.6°C 88% 5.0 mph ENE8.0 kmh ENE 17.0 mph27.4 kmh 29.67 in1004.7 mb 0.00 in0.0 mm 0.00 in0.0 mm 0.30 in7.6 mm
06:20 PM 28.7°F-1.8°C 25.6°F-3.6°C 88% 8.0 mph E12.9 kmh E 13.0 mph20.9 kmh 29.67 in1004.7 mb 0.00 in0.0 mm 0.00 in0.0 mm 0.30 in7.6 mm
06:24 PM 28.7°F-1.8°C 25.6°F-3.6°C 88% 2.0 mph N3.2 kmh N 17.0 mph27.4 kmh 29.68 in1005.1 mb 0.00 in0.0 mm 0.00 in0.0 mm 0.30 in7.6 mm
06:30 PM 28.5°F-1.9°C 25.4°F-3.7°C 88% 11.0 mph NNE17.7 kmh NNE 16.0 mph25.7 kmh 29.70 in1005.8 mb 0.00 in0.0 mm 0.00 in0.0 mm 0.30 in7.6 mm
06:35 PM 28.3°F-2.1°C 25.2°F-3.8°C 88% 14.0 mph NNE22.5 kmh NNE 19.0 mph30.6 kmh 29.70 in1005.8 mb 0.00 in0.0 mm 0.00 in0.0 mm 0.30 in7.6 mm
06:40 PM 28.0°F-2.2°C 24.6°F-4.1°C 87% 10.0 mph NNE16.1 kmh NNE 20.0 mph32.2 kmh 29.70 in1005.8 mb 0.00 in0.0 mm 0.00 in0.0 mm 0.30 in7.6 mm
06:45 PM 27.9°F-2.3°C 24.8°F-4.0°C 88% 12.0 mph NNE19.3 kmh NNE 17.0 mph27.4 kmh 29.70 in1005.8 mb 0.00 in0.0 mm 0.00 in0.0 mm 0.30 in7.6 mm
06:50 PM 27.8°F-2.3°C 24.7°F-4.1°C 88% 13.0 mph N20.9 kmh N 17.0 mph27.4 kmh 29.71 in1006.1 mb 0.00 in0.0 mm 0.00 in0.0 mm 0.30 in7.6 mm
06:54 PM 27.6°F-2.4°C 24.5°F-4.2°C 88% 18.0 mph NE29.0 kmh NE 18.0 mph29.0 kmh 29.70 in1005.8 mb 0.00 in0.0 mm 0.00 in0.0 mm 0.30 in7.6 mm
07:00 PM 27.4°F-2.6°C 24.3°F-4.3°C 88% 10.0 mph E16.1 kmh E 22.0 mph35.4 kmh 29.70 in1005.8 mb 0.00 in0.0 mm 0.00 in0.0 mm 0.30 in7.6 mm
07:04 PM 27.2°F-2.7°C 24.4°F-4.2°C 89% 18.0 mph NNE29.0 kmh NNE 18.0 mph29.0 kmh 29.71 in1006.1 mb 0.00 in0.0 mm 0.00 in0.0 mm 0.30 in7.6 mm
07:10 PM 27.1°F-2.7°C 24.3°F-4.3°C 89% 10.0 mph N16.1 kmh N 16.0 mph25.7 kmh 29.71 in1006.1 mb 0.00 in0.0 mm 0.00 in0.0 mm 0.30 in7.6 mm
07:15 PM 27.0°F-2.8°C 24.2°F-4.3°C 89% 14.0 mph N22.5 kmh N 21.0 mph33.8 kmh 29.72 in1006.4 mb 0.00 in0.0 mm 0.00 in0.0 mm 0.30 in7.6 mm
07:19 PM 26.9°F-2.8°C 24.1°F-4.4°C 89% 17.0 mph NE27.4 kmh NE 18.0 mph29.0 kmh 29.73 in1006.8 mb 0.00 in0.0 mm 0.00 in0.0 mm 0.30 in7.6 mm
07:25 PM 26.8°F-2.9°C 24.0°F-4.4°C 89% 15.0 mph N24.1 kmh N 20.0 mph32.2 kmh 29.73 in1006.8 mb 0.00 in0.0 mm 0.00 in0.0 mm 0.30 in7.6 mm
07:30 PM 26.8°F-2.9°C 24.0°F-4.4°C 89% 6.0 mph N9.7 kmh N 17.0 mph27.4 kmh 29.74 in1007.1 mb 0.00 in0.0 mm 0.00 in0.0 mm 0.30 in7.6 mm
07:35 PM 26.8°F-2.9°C 24.0°F-4.4°C 89% 18.0 mph N29.0 kmh N 18.0 mph29.0 kmh 29.75 in1007.5 mb 0.00 in0.0 mm 0.00 in0.0 mm 0.30 in7.6 mm
07:40 PM 26.7°F-2.9°C 24.2°F-4.3°C 90% 13.0 mph NNE20.9 kmh NNE 17.0 mph27.4 kmh 29.76 in1007.8 mb 0.00 in0.0 mm 0.00 in0.0 mm 0.30 in7.6 mm
07:45 PM 26.7°F-2.9°C 24.2°F-4.3°C 90% 12.0 mph NNE19.3 kmh NNE 13.0 mph20.9 kmh 29.77 in1008.1 mb 0.00 in0.0 mm 0.00 in0.0 mm 0.30 in7.6 mm
07:49 PM 26.8°F-2.9°C 24.3°F-4.3°C 90% 6.0 mph N9.7 kmh N 13.0 mph20.9 kmh 29.77 in1008.1 mb 0.00 in0.0 mm 0.00 in0.0 mm 0.30 in7.6 mm
07:55 PM 26.8°F-2.9°C 24.5°F-4.2°C 91% 16.0 mph NW25.7 kmh NW 20.0 mph32.2 kmh 29.77 in1008.1 mb 0.00 in0.0 mm 0.00 in0.0 mm 0.30 in7.6 mm
08:00 PM 26.6°F-3.0°C 24.3°F-4.3°C 91% 10.0 mph N16.1 kmh N 17.0 mph27.4 kmh 29.77 in1008.1 mb 0.00 in0.0 mm 0.00 in0.0 mm 0.30 in7.6 mm
08:05 PM 26.5°F-3.1°C 24.2°F-4.3°C 91% 14.0 mph N22.5 kmh N 23.0 mph37.0 kmh 29.77 in1008.1 mb 0.00 in0.0 mm 0.00 in0.0 mm 0.30 in7.6 mm
08:10 PM 26.4°F-3.1°C 23.9°F-4.5°C 90% 14.0 mph NE22.5 kmh NE 20.0 mph32.2 kmh 29.77 in1008.1 mb 0.00 in0.0 mm 0.00 in0.0 mm 0.30 in7.6 mm
08:15 PM 26.2°F-3.2°C 23.9°F-4.5°C 91% 9.0 mph N14.5 kmh N 22.0 mph35.4 kmh 29.77 in1008.1 mb 0.00 in0.0 mm 0.00 in0.0 mm 0.30 in7.6 mm
08:20 PM 26.0°F-3.3°C 23.7°F-4.6°C 91% 7.0 mph N11.3 kmh N 15.0 mph24.1 kmh 29.77 in1008.1 mb 0.00 in0.0 mm 0.00 in0.0 mm 0.30 in7.6 mm
08:25 PM 25.9°F-3.4°C 23.6°F-4.7°C 91% 9.0 mph N14.5 kmh N 16.0 mph25.7 kmh 29.77 in1008.1 mb 0.00 in0.0 mm 0.00 in0.0 mm 0.30 in7.6 mm
08:29 PM 25.8°F-3.4°C 23.5°F-4.7°C 91% 6.0 mph NE9.7 kmh NE 22.0 mph35.4 kmh 29.77 in1008.1 mb 0.00 in0.0 mm 0.00 in0.0 mm 0.30 in7.6 mm
08:35 PM 25.5°F-3.6°C 23.2°F-4.9°C 91% 16.0 mph N25.7 kmh N 19.0 mph30.6 kmh 29.77 in1008.1 mb 0.00 in0.0 mm 0.00 in0.0 mm 0.30 in7.6 mm
08:40 PM 25.4°F-3.7°C 23.1°F-4.9°C 91% 18.0 mph N29.0 kmh N 26.0 mph41.8 kmh 29.77 in1008.1 mb 0.00 in0.0 mm 0.00 in0.0 mm 0.30 in7.6 mm
08:45 PM 25.4°F-3.7°C 23.4°F-4.8°C 92% 8.0 mph N12.9 kmh N 16.0 mph25.7 kmh 29.77 in1008.1 mb 0.00 in0.0 mm 0.00 in0.0 mm 0.30 in7.6 mm
08:49 PM 25.3°F-3.7°C 23.1°F-4.9°C 91% 7.0 mph NE11.3 kmh NE 27.0 mph43.5 kmh 29.78 in1008.5 mb 0.00 in0.0 mm 0.00 in0.0 mm 0.30 in7.6 mm
08:55 PM 25.2°F-3.8°C 23.0°F-5.0°C 91% 3.0 mph NE4.8 kmh NE 16.0 mph25.7 kmh 29.77 in1008.1 mb 0.00 in0.0 mm 0.00 in0.0 mm 0.30 in7.6 mm
08:59 PM 25.3°F-3.7°C 23.3°F-4.8°C 92% 15.0 mph NNE24.1 kmh NNE 20.0 mph32.2 kmh 29.78 in1008.5 mb 0.00 in0.0 mm 0.00 in0.0 mm 0.30 in7.6 mm
09:05 PM 25.3°F-3.7°C 23.3°F-4.8°C 92% 10.0 mph N16.1 kmh N 16.0 mph25.7 kmh 29.78 in1008.5 mb 0.00 in0.0 mm 0.00 in0.0 mm 0.30 in7.6 mm
09:10 PM 25.3°F-3.7°C 23.3°F-4.8°C 92% 15.0 mph NE24.1 kmh NE 18.0 mph29.0 kmh 29.78 in1008.5 mb 0.00 in0.0 mm 0.00 in0.0 mm 0.30 in7.6 mm
09:15 PM 25.2°F-3.8°C 23.2°F-4.9°C 92% 9.0 mph ENE14.5 kmh ENE 14.0 mph22.5 kmh 29.78 in1008.5 mb 0.00 in0.0 mm 0.00 in0.0 mm 0.30 in7.6 mm
09:20 PM 25.1°F-3.8°C 23.1°F-4.9°C 92% 19.0 mph NNE30.6 kmh NNE 19.0 mph30.6 kmh 29.78 in1008.5 mb 0.00 in0.0 mm 0.00 in0.0 mm 0.30 in7.6 mm
09:25 PM 25.0°F-3.9°C 23.0°F-5.0°C 92% 9.0 mph N14.5 kmh N 19.0 mph30.6 kmh 29.79 in1008.8 mb 0.00 in0.0 mm 0.00 in0.0 mm 0.30 in7.6 mm
09:30 PM 24.9°F-3.9°C 22.9°F-5.1°C 92% 16.0 mph NNE25.7 kmh NNE 20.0 mph32.2 kmh 29.79 in1008.8 mb 0.00 in0.0 mm 0.00 in0.0 mm 0.30 in7.6 mm
09:35 PM 24.7°F-4.1°C 22.7°F-5.2°C 92% 15.0 mph N24.1 kmh N 15.0 mph24.1 kmh 29.80 in1009.1 mb 0.00 in0.0 mm 0.00 in0.0 mm 0.30 in7.6 mm
09:40 PM 24.6°F-4.1°C 22.6°F-5.2°C 92% 8.0 mph N12.9 kmh N 16.0 mph25.7 kmh 29.80 in1009.1 mb 0.00 in0.0 mm 0.00 in0.0 mm 0.30 in7.6 mm
09:44 PM 24.6°F-4.1°C 22.6°F-5.2°C 92% 7.0 mph N11.3 kmh N 15.0 mph24.1 kmh 29.80 in1009.1 mb 0.00 in0.0 mm 0.00 in0.0 mm 0.30 in7.6 mm
09:49 PM 24.3°F-4.3°C 22.3°F-5.4°C 92% 15.0 mph NNE24.1 kmh NNE 19.0 mph30.6 kmh 29.81 in1009.5 mb 0.00 in0.0 mm 0.00 in0.0 mm 0.30 in7.6 mm
09:55 PM 24.2°F-4.3°C 22.2°F-5.4°C 92% 9.0 mph N14.5 kmh N 14.0 mph22.5 kmh 29.81 in1009.5 mb 0.00 in0.0 mm 0.00 in0.0 mm 0.30 in7.6 mm
09:59 PM 23.8°F-4.6°C 21.8°F-5.7°C 92% 16.0 mph N25.7 kmh N 18.0 mph29.0 kmh 29.81 in1009.5 mb 0.00 in0.0 mm 0.00 in0.0 mm 0.30 in7.6 mm
10:04 PM 23.5°F-4.7°C 21.3°F-5.9°C 91% 12.0 mph ENE19.3 kmh ENE 18.0 mph29.0 kmh 29.82 in1009.8 mb 0.00 in0.0 mm 0.00 in0.0 mm 0.30 in7.6 mm
10:10 PM 23.4°F-4.8°C 21.2°F-6.0°C 91% 9.0 mph NW14.5 kmh NW 19.0 mph30.6 kmh 29.82 in1009.8 mb 0.00 in0.0 mm 0.00 in0.0 mm 0.30 in7.6 mm
10:15 PM 23.2°F-4.9°C 21.0°F-6.1°C 91% 13.0 mph N20.9 kmh N 19.0 mph30.6 kmh 29.82 in1009.8 mb 0.00 in0.0 mm 0.00 in0.0 mm 0.30 in7.6 mm
10:20 PM 23.1°F-4.9°C 20.9°F-6.2°C 91% 12.0 mph N19.3 kmh N 20.0 mph32.2 kmh 29.83 in1010.2 mb 0.00 in0.0 mm 0.00 in0.0 mm 0.30 in7.6 mm
10:24 PM 22.9°F-5.1°C 20.7°F-6.3°C 91% 12.0 mph N19.3 kmh N 21.0 mph33.8 kmh 29.83 in1010.2 mb 0.00 in0.0 mm 0.00 in0.0 mm 0.30 in7.6 mm
10:30 PM 22.8°F-5.1°C 20.6°F-6.3°C 91% 8.0 mph NNE12.9 kmh NNE 16.0 mph25.7 kmh 29.84 in1010.5 mb 0.00 in0.0 mm 0.00 in0.0 mm 0.30 in7.6 mm
10:35 PM 22.8°F-5.1°C 20.6°F-6.3°C 91% 10.0 mph N16.1 kmh N 12.0 mph19.3 kmh 29.84 in1010.5 mb 0.00 in0.0 mm 0.00 in0.0 mm 0.30 in7.6 mm
10:40 PM 22.8°F-5.1°C 20.6°F-6.3°C 91% 14.0 mph N22.5 kmh N 19.0 mph30.6 kmh 29.84 in1010.5 mb 0.00 in0.0 mm 0.00 in0.0 mm 0.30 in7.6 mm
10:44 PM 22.6°F-5.2°C 20.4°F-6.4°C 91% 14.0 mph N22.5 kmh N 20.0 mph32.2 kmh 29.85 in1010.8 mb 0.00 in0.0 mm 0.00 in0.0 mm 0.30 in7.6 mm
10:49 PM 22.5°F-5.3°C 20.3°F-6.5°C 91% 13.0 mph NNE20.9 kmh NNE 16.0 mph25.7 kmh 29.85 in1010.8 mb 0.00 in0.0 mm 0.00 in0.0 mm 0.30 in7.6 mm
10:55 PM 22.5°F-5.3°C 20.3°F-6.5°C 91% 15.0 mph NNW24.1 kmh NNW 17.0 mph27.4 kmh 29.85 in1010.8 mb 0.00 in0.0 mm 0.00 in0.0 mm 0.30 in7.6 mm
11:00 PM 22.6°F-5.2°C 20.4°F-6.4°C 91% 5.0 mph N8.0 kmh N 14.0 mph22.5 kmh 29.85 in1010.8 mb 0.00 in0.0 mm 0.00 in0.0 mm 0.30 in7.6 mm
11:05 PM 22.5°F-5.3°C 20.3°F-6.5°C 91% 9.0 mph NNE14.5 kmh NNE 17.0 mph27.4 kmh 29.85 in1010.8 mb 0.00 in0.0 mm 0.00 in0.0 mm 0.30 in7.6 mm
11:10 PM 22.5°F-5.3°C 20.3°F-6.5°C 91% 12.0 mph NNW19.3 kmh NNW 21.0 mph33.8 kmh 29.86 in1011.2 mb 0.00 in0.0 mm 0.00 in0.0 mm 0.30 in7.6 mm
11:14 PM 22.4°F-5.3°C 19.9°F-6.7°C 90% 5.0 mph NNW8.0 kmh NNW 13.0 mph20.9 kmh 29.86 in1011.2 mb 0.00 in0.0 mm 0.00 in0.0 mm 0.30 in7.6 mm
11:19 PM 22.2°F-5.4°C 20.0°F-6.7°C 91% 19.0 mph N30.6 kmh N 19.0 mph30.6 kmh 29.86 in1011.2 mb 0.00 in0.0 mm 0.00 in0.0 mm 0.30 in7.6 mm
11:25 PM 22.1°F-5.5°C 19.9°F-6.7°C 91% 10.0 mph N16.1 kmh N 15.0 mph24.1 kmh 29.86 in1011.2 mb 0.00 in0.0 mm 0.00 in0.0 mm 0.30 in7.6 mm
11:30 PM 22.1°F-5.5°C 19.9°F-6.7°C 91% 9.0 mph N14.5 kmh N 16.0 mph25.7 kmh 29.86 in1011.2 mb 0.00 in0.0 mm 0.00 in0.0 mm 0.30 in7.6 mm
11:35 PM 22.2°F-5.4°C 19.7°F-6.8°C 90% 15.0 mph N24.1 kmh N 17.0 mph27.4 kmh 29.86 in1011.2 mb 0.00 in0.0 mm 0.00 in0.0 mm 0.30 in7.6 mm
11:40 PM 22.1°F-5.5°C 19.6°F-6.9°C 90% 10.0 mph NNW16.1 kmh NNW 21.0 mph33.8 kmh 29.86 in1011.2 mb 0.00 in0.0 mm 0.00 in0.0 mm 0.30 in7.6 mm
11:45 PM 22.1°F-5.5°C 19.4°F-7.0°C 89% 8.0 mph N12.9 kmh N 18.0 mph29.0 kmh 29.86 in1011.2 mb 0.00 in0.0 mm 0.00 in0.0 mm 0.30 in7.6 mm
11:50 PM 22.1°F-5.5°C 19.4°F-7.0°C 89% 9.0 mph NE14.5 kmh NE 15.0 mph24.1 kmh 29.86 in1011.2 mb 0.00 in0.0 mm 0.00 in0.0 mm 0.30 in7.6 mm
11:55 PM 22.0°F-5.6°C 19.3°F-7.1°C 89% 7.0 mph NNE11.3 kmh NNE 23.0 mph37.0 kmh 29.87 in1011.5 mb 0.00 in0.0 mm 0.00 in0.0 mm 0.30 in7.6 mm